Time;durP1;ratioP1;P1;durP2;ratioP2;P2;SDS_P1;SDS_P2;PMS_P1;PMS_P2;Temp;Humidity;BMP_temperature;BMP_pressure;BME280_temperature;BME280_humidity;BME280_pressure;Samples;Min_cycle;Max_cycle;Signal;HPM_P1;HPM_P2
2022/12/14 00:01:31;;;;;;;27.52;17.17;;;;;;;-3.99;100.00;100407.28;4997145;28;20041;-64
2022/12/14 00:03:56;;;;;;;28.13;16.83;;;;;;;-3.62;100.00;100474.84;5014595;28;20046;-63
2022/12/14 00:06:25;;;;;;;28.02;17.95;;;;;;;-4.06;100.00;100396.84;5014743;28;20413;-62
2022/12/14 00:08:52;;;;;;;25.42;16.92;;;;;;;-4.00;100.00;100404.69;4997127;28;20030;-65
2022/12/14 00:11:21;;;;;;;30.17;17.40;;;;;;;-3.59;100.00;100470.59;5014429;28;20034;-65
2022/12/14 00:13:52;;;;;;;31.65;18.33;;;;;;;-3.60;100.00;100455.13;5014449;28;20026;-65
2022/12/14 00:16:18;;;;;;;26.50;16.05;;;;;;;-4.02;100.00;100388.34;4996746;28;20072;-65
2022/12/14 00:18:44;;;;;;;28.55;17.38;;;;;;;-3.65;100.00;100455.03;5013411;28;20069;-64
2022/12/14 00:21:12;;;;;;;26.40;15.85;;;;;;;-4.09;100.00;100371.09;4980713;28;20128;-63
2022/12/14 00:23:40;;;;;;;27.00;16.35;;;;;;;-3.68;100.00;100428.41;5014373;28;20040;-63
2022/12/14 00:26:16;;;;;;;27.13;16.38;;;;;;;-3.63;100.00;100437.06;5014442;28;20034;-63
2022/12/14 00:28:42;;;;;;;26.08;16.00;;;;;;;-3.65;100.00;100436.19;4996441;28;20061;-63
2022/12/14 00:31:07;;;;;;;24.02;15.85;;;;;;;-4.16;100.00;100330.69;4996402;28;20045;-64
2022/12/14 00:33:33;;;;;;;24.48;16.40;;;;;;;-4.21;100.00;100322.03;4996492;28;20045;-63
2022/12/14 00:35:59;;;;;;;26.30;15.85;;;;;;;-3.81;100.00;100401.59;4996294;28;20084;-63
2022/12/14 00:38:25;;;;;;;23.17;16.20;;;;;;;-4.14;100.00;100347.88;4996527;28;20065;-63
2022/12/14 00:40:50;;;;;;;26.67;16.88;;;;;;;-3.82;100.00;100407.56;5013969;28;20053;-63
2022/12/14 00:43:15;;;;;;;30.45;17.88;;;;;;;-3.84;100.00;100404.13;5013604;28;20050;-63
2022/12/14 00:45:44;;;;;;;29.35;16.67;;;;;;;-3.77;100.00;100423.09;5013819;28;20384;-63
2022/12/14 00:48:10;;;;;;;28.33;17.33;;;;;;;-3.85;100.00;100399.81;4996065;28;20485;-63
2022/12/14 00:50:36;;;;;;;27.83;16.63;;;;;;;-3.86;100.00;100404.94;5013749;28;20153;-63
2022/12/14 00:53:01;;;;;;;26.48;17.30;;;;;;;-3.84;100.00;100409.25;4979921;28;20100;-63
2022/12/14 00:55:26;;;;;;;29.50;16.90;;;;;;;-3.97;100.00;100390.16;4996129;28;20041;-62
2022/12/14 00:57:52;;;;;;;25.13;16.05;;;;;;;-3.87;100.00;100403.19;5013314;28;20061;-63
2022/12/14 01:00:17;;;;;;;26.30;17.02;;;;;;;-4.34;100.00;100314.91;5013655;28;20436;-63
2022/12/14 01:02:43;;;;;;;22.33;15.45;;;;;;;-4.02;100.00;100380.63;4995863;28;20042;-63
2022/12/14 01:05:08;;;;;;;27.42;15.48;;;;;;;-4.21;100.00;100333.19;5013986;28;20042;-62
2022/12/14 01:07:33;;;;;;;24.80;16.38;;;;;;;-3.90;100.00;100400.56;5013490;28;20048;-63
2022/12/14 01:09:59;;;;;;;29.23;16.27;;;;;;;-4.25;100.00;100322.81;4995790;28;20080;-63
2022/12/14 01:12:24;;;;;;;22.77;15.05;;;;;;;-3.97;100.00;100373.03;5013298;28;20038;-64
2022/12/14 01:14:49;;;;;;;26.90;15.50;;;;;;;-3.98;100.00;100369.59;5013580;28;20389;-64
2022/12/14 01:17:15;;;;;;;27.50;16.10;;;;;;;-4.28;100.00;100307.31;5013797;28;20144;-64
2022/12/14 01:19:40;;;;;;;25.42;15.45;;;;;;;-3.89;100.00;100372.31;5013530;28;20065;-63
2022/12/14 01:22:05;;;;;;;25.05;15.95;;;;;;;-3.88;100.00;100380.91;5013240;28;20033;-64
2022/12/14 01:24:31;;;;;;;27.05;15.23;;;;;;;-3.93;100.00;100369.66;5013378;28;20550;-64
2022/12/14 01:26:56;;;;;;;25.10;14.38;;;;;;;-3.91;100.00;100386.00;5012920;28;20542;-64
2022/12/14 01:29:21;;;;;;;26.30;15.13;;;;;;;-4.37;100.00;100307.16;4995270;28;20042;-64
2022/12/14 01:31:47;;;;;;;22.40;14.00;;;;;;;-4.41;100.00;100305.38;4995559;28;20060;-64
2022/12/14 01:34:12;;;;;;;22.92;14.23;;;;;;;-4.25;100.00;100343.34;5012896;28;20096;-64
2022/12/14 01:36:38;;;;;;;23.58;14.45;;;;;;;-3.95;100.00;100379.06;5013008;28;20096;-63
2022/12/14 01:39:12;;;;;;;21.90;13.70;;;;;;;-4.41;100.00;100305.38;5012828;28;20468;-64
2022/12/14 01:41:40;;;;;;;24.90;14.30;;;;;;;-4.00;100.00;100384.97;5012365;28;20475;-63
2022/12/14 01:44:08;;;;;;;24.23;14.43;;;;;;;-3.99;100.00;100396.13;5012540;28;20109;-63
2022/12/14 01:46:49;;;;;;;26.05;15.60;;;;;;;-4.01;100.00;100401.25;5012837;28;20036;-63
2022/12/14 01:49:41;;;;;;;24.33;15.82;;;;;;;-4.02;100.00;100385.78;4995479;28;20041;-63
2022/12/14 01:52:22;;;;;;;25.27;15.77;;;;;;;-4.44;100.00;100319.03;5012253;28;20033;-62
2022/12/14 01:55:07;;;;;;;;;;;;;;;-4.09;100.00;100386.50;4995529;28;20091;-63
2022/12/14 01:57:45;;;;;;;23.80;14.05;;;;;;;-4.55;100.00;100312.81;4994586;28;19913;-63
2022/12/14 02:00:12;;;;;;;23.23;14.93;;;;;;;-4.62;100.00;100314.41;5012222;28;20462;-63
2022/12/14 02:02:40;;;;;;;22.73;15.35;;;;;;;-4.27;100.00;100379.31;5012486;28;20038;-62
2022/12/14 02:05:07;;;;;;;25.95;15.05;;;;;;;-4.42;100.00;100371.31;4994793;28;20042;-63
2022/12/14 02:07:32;;;;;;;24.98;14.38;;;;;;;-4.92;100.00;100276.97;4978895;28;20164;-63
2022/12/14 02:10:01;;;;;;;24.85;15.55;;;;;;;-4.95;100.00;100285.47;5012159;28;20034;-64
2022/12/14 02:12:38;;;;;;;27.35;15.07;;;;;;;-4.50;100.00;100367.72;4994814;28;20477;-64
2022/12/14 02:15:03;;;;;;;22.88;14.68;;;;;;;-4.94;100.00;100306.88;4994536;28;20048;-64
2022/12/14 02:17:29;;;;;;;26.27;15.52;;;;;;;-4.99;100.00;100308.50;5012349;28;20453;-64
2022/12/14 02:19:55;;;;;;;25.23;14.93;;;;;;;-4.67;100.00;100364.78;5012295;28;20037;-64
2022/12/14 02:22:56;;;;;;;24.20;14.55;;;;;;;-4.59;100.00;100370.09;4994621;28;20029;-65
2022/12/14 02:25:37;;;;;;;25.73;16.40;;;;;;;-4.61;100.00;100387.16;4994327;28;20481;-64
2022/12/14 02:28:13;;;;;;;24.73;15.35;;;;;;;-4.77;100.00;100342.34;5011915;28;20030;-64
2022/12/14 02:30:39;;;;;;;27.30;15.07;;;;;;;-4.87;100.00;100332.69;5011887;28;20527;-65
2022/12/14 02:33:37;;;;;;;24.83;15.88;;;;;;;-4.70;100.00;100362.16;4994374;28;20144;-67
2022/12/14 02:36:20;;;;;;;24.45;15.18;;;;;;;-4.76;100.00;100363.75;5011770;28;20038;-64
2022/12/14 02:38:45;;;;;;;28.25;15.48;;;;;;;-4.82;100.00;100376.44;4994612;28;20065;-64
2022/12/14 02:41:13;;;;;;;26.20;14.20;;;;;;;-4.88;100.00;100368.63;5012811;28;20424;-64
2022/12/14 02:43:48;;;;;;;27.63;16.33;;;;;;;-4.94;100.00;100363.34;5016492;28;20041;-64
2022/12/14 02:46:24;;;;;;;26.38;14.85;;;;;;;-5.41;100.00;100300.69;5015917;28;20045;-65
2022/12/14 02:49:17;;;;;;;27.40;16.27;;;;;;;-5.04;100.00;100369.09;5016117;28;20036;-65
2022/12/14 02:52:00;;;;;;;25.98;14.88;;;;;;;-5.51;100.00;100291.94;4998334;28;20042;-64
2022/12/14 02:54:53;;;;;;;27.40;15.93;;;;;;;-5.13;100.00;100362.94;4998735;28;20029;-65
2022/12/14 02:57:22;;;;;;;27.67;15.45;;;;;;;-5.20;100.00;100358.50;5015256;28;20049;-65
2022/12/14 02:59:49;;;;;;;29.15;16.02;;;;;;;-5.31;100.00;100346.25;4998367;28;20084;-65
2022/12/14 03:02:15;;;;;;;27.25;15.70;;;;;;;-5.22;100.00;100360.16;4998230;28;20034;-65
2022/12/14 03:04:46;;;;;;;27.75;16.08;;;;;;;-5.25;100.00;100354.94;4997994;28;20042;-65
2022/12/14 03:07:31;;;;;;;28.55;17.58;;;;;;;-5.26;100.00;100353.22;5015486;28;20033;-65
2022/12/14 03:10:12;;;;;;;30.33;16.48;;;;;;;-5.39;100.00;100340.06;5015677;28;20057;-65
2022/12/14 03:12:40;;;;;;;32.00;16.65;;;;;;;-5.27;100.00;100350.63;5015702;28;20130;-65
2022/12/14 03:15:08;;;;;;;31.45;17.73;;;;;;;-5.26;100.00;100355.81;4997839;28;20050;-65
2022/12/14 03:17:33;;;;;;;27.92;16.98;;;;;;;-5.31;100.00;100325.75;4997843;28;20045;-65
2022/12/14 03:20:04;;;;;;;27.45;16.38;;;;;;;-5.28;100.00;100313.81;4998071;28;20042;-65
2022/12/14 03:22:38;;;;;;;27.58;15.52;;;;;;;-5.18;100.00;100322.59;5015522;28;20037;-65
2022/12/14 03:25:13;;;;;;;28.15;16.73;;;;;;;-5.14;100.00;100327.81;5015205;28;20421;-65
2022/12/14 03:27:43;;;;;;;30.75;16.27;;;;;;;-5.11;100.00;100325.31;5015331;28;20546;-65
2022/12/14 03:30:11;;;;;;;29.92;17.08;;;;;;;-5.20;100.00;100299.50;5015188;28;20037;-65
2022/12/14 03:32:41;;;;;;;33.03;16.45;;;;;;;-5.52;100.00;100243.19;4997757;28;20034;-65
2022/12/14 03:35:12;;;;;;;37.28;17.75;;;;;;;-5.08;100.00;100318.56;4997390;28;20515;-65
2022/12/14 03:37:46;;;;;;;28.35;16.77;;;;;;;-5.43;100.00;100249.34;5015268;28;20104;-64
2022/12/14 03:40:13;;;;;;;28.65;16.48;;;;;;;-5.18;100.00;100292.69;4997243;28;20052;-64
2022/12/14 03:42:54;;;;;;;27.08;16.80;;;;;;;-5.54;100.00;100238.00;4997462;28;20055;-65
2022/12/14 03:45:28;;;;;;;33.15;18.30;;;;;;;-5.51;100.00;100237.19;4997499;28;20034;-64
2022/12/14 03:47:59;;;;;;;26.52;16.80;;;;;;;-5.32;100.00;100285.53;5015046;28;20026;-65
2022/12/14 03:50:40;;;;;;;31.23;17.23;;;;;;;-5.33;100.00;100281.22;5015055;28;20026;-64
2022/12/14 03:53:10;;;;;;;;;;;;;;;-5.21;100.00;100295.19;4997484;28;20037;-64
2022/12/14 03:56:05;;;;;;;27.67;16.17;;;;;;;-5.57;100.00;100237.09;5014948;28;19913;-65
2022/12/14 03:58:43;;;;;;;29.58;18.42;;;;;;;-5.24;100.00;100290.00;5014858;28;20076;-64
2022/12/14 04:01:13;;;;;;;30.92;18.02;;;;;;;-5.45;100.00;100260.41;5014236;28;20040;-65
2022/12/14 04:03:59;;;;;;;30.83;18.02;;;;;;;-5.27;100.00;100289.91;4997335;28;20396;-65
2022/12/14 04:06:45;;;;;;;28.15;17.05;;;;;;;-5.75;100.00;100205.06;4981016;28;20044;-64
2022/12/14 04:09:31;;;;;;;29.40;16.90;;;;;;;-5.26;100.00;100307.06;4997096;28;20034;-64
2022/12/14 04:20:39;;;;;;;33.90;18.30;;;;;;;-5.51;100.00;100250.91;4999880;28;20061;-64
2022/12/14 04:23:10;;;;;;;31.73;18.60;;;;;;;-5.35;100.00;100280.31;4996756;28;20030;-66
2022/12/14 04:31:31;;;;;;;31.67;18.27;;;;;;;-5.40;100.00;100269.94;4999248;28;20048;-65
2022/12/14 04:34:01;;;;;;;24.17;15.77;;;;;;;-5.40;100.00;100253.72;4996443;28;20045;-65
2022/12/14 04:36:43;;;;;;;30.80;17.35;;;;;;;-5.53;100.00;100247.44;4996791;28;20026;-66
2022/12/14 04:39:20;;;;;;;30.60;17.75;;;;;;;-5.78;100.00;100193.91;4996161;28;20029;-64
2022/12/14 04:41:49;;;;;;;28.80;16.73;;;;;;;-5.38;100.00;100264.88;4995923;28;20049;-66
2022/12/14 04:44:21;;;;;;;29.38;17.88;;;;;;;-5.89;100.00;100178.28;4996158;28;20471;-64
2022/12/14 04:46:47;;;;;;;26.17;16.10;;;;;;;-5.80;100.00;100191.28;4996441;28;20122;-65
2022/12/14 04:49:19;;;;;;;30.15;16.70;;;;;;;-5.91;100.00;100172.28;4996245;28;20156;-65
2022/12/14 04:51:58;;;;;;;33.20;16.67;;;;;;;-5.53;100.00;100250.00;5013820;28;20030;-65
2022/12/14 04:54:44;;;;;;;27.77;17.45;;;;;;;-5.50;100.00;100250.06;4996244;28;20476;-65
2022/12/14 04:57:26;;;;;;;27.27;16.77;;;;;;;-5.82;100.00;100203.22;5013604;28;20061;-64
2022/12/14 04:59:53;;;;;;;27.95;17.42;;;;;;;-5.50;100.00;100250.06;4996331;28;20034;-65
2022/12/14 05:02:26;;;;;;;26.63;16.08;;;;;;;-5.55;100.00;100243.13;4996004;28;20112;-65
2022/12/14 05:05:00;;;;;;;26.48;16.10;;;;;;;-6.02;100.00;100171.19;4995309;28;20066;-65
2022/12/14 05:07:36;;;;;;;25.63;16.05;;;;;;;-5.66;100.00;100234.31;4995830;28;20469;-65
2022/12/14 05:10:11;;;;;;;23.77;15.20;;;;;;;-5.64;100.00;100251.47;5013345;28;20121;-64
2022/12/14 05:13:09;;;;;;;26.30;16.23;;;;;;;-5.73;100.00;100249.56;4995908;28;20112;-65
2022/12/14 05:15:46;;;;;;;29.10;16.75;;;;;;;-5.90;100.00;100224.41;4982576;28;20044;-65
2022/12/14 05:18:12;;;;;;;29.20;16.88;;;;;;;-6.30;100.00;100172.22;4995488;28;20124;-66
2022/12/14 05:20:37;;;;;;;26.95;15.65;;;;;;;-6.43;100.00;100143.72;4995509;28;20113;-64
2022/12/14 05:23:02;;;;;;;26.83;17.05;;;;;;;-6.30;100.00;100176.47;5013125;28;20125;-64
2022/12/14 05:25:28;;;;;;;30.33;16.17;;;;;;;-6.38;100.00;100163.47;4995528;28;20535;-64
2022/12/14 05:27:53;;;;;;;26.88;16.17;;;;;;;-5.97;100.00;100245.56;4995643;28;20392;-64
2022/12/14 05:30:18;;;;;;;27.80;15.35;;;;;;;-6.57;100.00;100148.50;5013062;28;20041;-64
2022/12/14 05:32:44;;;;;;;24.52;15.52;;;;;;;-6.07;100.00;100249.59;5012817;28;20040;-64
2022/12/14 05:35:13;;;;;;;28.27;16.92;;;;;;;-6.14;100.00;100252.00;4995211;28;20047;-64
2022/12/14 05:37:39;;;;;;;25.77;16.40;;;;;;;-6.67;100.00;100153.34;5012929;28;20030;-65
2022/12/14 05:40:05;;;;;;;26.00;15.68;;;;;;;-6.21;100.00;100242.41;4994786;28;20038;-66
2022/12/14 05:42:30;;;;;;;30.05;17.58;;;;;;;-6.74;100.00;100154.88;4995090;28;20488;-65
2022/12/14 05:44:56;;;;;;;30.60;16.42;;;;;;;-6.30;100.00;100235.34;5012715;28;20050;-65
2022/12/14 05:47:21;;;;;;;26.42;15.95;;;;;;;-6.35;100.00;100226.69;4995073;28;20385;-65
2022/12/14 05:49:47;;;;;;;32.10;17.00;;;;;;;-6.43;100.00;100229.09;5012856;28;20089;-66
2022/12/14 05:52:12;;;;;;;25.77;16.30;;;;;;;-6.87;100.00;100160.53;5012601;28;20065;-64
2022/12/14 05:54:37;;;;;;;28.05;16.80;;;;;;;-6.56;100.00;100226.16;4994914;28;20037;-65
2022/12/14 05:57:03;;;;;;;28.90;15.90;;;;;;;-6.72;100.00;100213.78;5012779;28;20120;-66
2022/12/14 05:59:29;;;;;;;34.60;18.08;;;;;;;-6.65;100.00;100223.34;4995151;28;20034;-66
2022/12/14 06:01:55;;;;;;;29.48;16.83;;;;;;;-6.71;100.00;100223.22;5012333;28;20125;-65
2022/12/14 06:04:20;;;;;;;30.00;16.55;;;;;;;-6.80;100.00;100222.97;4994961;28;20069;-65
2022/12/14 06:06:46;;;;;;;29.60;17.05;;;;;;;-6.85;100.00;100218.56;5012122;28;20110;-64
2022/12/14 06:09:14;;;;;;;31.20;17.65;;;;;;;-6.83;100.00;100239.09;5012701;28;20053;-66
2022/12/14 06:11:40;;;;;;;30.73;16.55;;;;;;;-7.31;100.00;100166.13;4995000;28;20033;-66
2022/12/14 06:14:07;;;;;;;32.13;16.70;;;;;;;-7.42;100.00;100143.69;4994773;28;20392;-66
2022/12/14 06:16:33;;;;;;;26.90;16.55;;;;;;;-7.29;100.00;100160.22;5011226;28;20034;-66
2022/12/14 06:19:00;;;;;;;28.77;17.10;;;;;;;-6.91;100.00;100236.31;5012604;28;20108;-66
2022/12/14 06:21:30;;;;;;;33.22;17.83;;;;;;;-6.94;100.00;100213.22;4994786;28;20433;-66
2022/12/14 06:23:56;;;;;;;30.17;17.30;;;;;;;-6.91;100.00;100218.41;4994740;28;20041;-66
2022/12/14 06:26:22;;;;;;;29.30;16.65;;;;;;;-7.15;100.00;100163.19;4994770;28;20038;-66
2022/12/14 06:28:47;;;;;;;28.80;18.10;;;;;;;-6.85;100.00;100213.47;4994427;28;20033;-66
2022/12/14 06:31:18;;;;;;;33.67;17.42;;;;;;;-6.98;100.00;100188.38;5012005;28;20026;-67
2022/12/14 06:33:43;;;;;;;;;;;;;;;-6.78;100.00;100219.63;5012630;28;20037;-66
2022/12/14 06:36:17;;;;;;;31.48;16.10;;;;;;;-7.07;100.00;100187.25;5012338;28;20373;-66
2022/12/14 06:38:42;;;;;;;29.45;16.70;;;;;;;-6.87;100.00;100204.00;4994947;28;20030;-66
2022/12/14 06:41:08;;;;;;;34.47;17.50;;;;;;;-6.76;100.00;100217.09;4994629;28;20404;-66
2022/12/14 06:43:33;;;;;;;28.55;17.55;;;;;;;-6.76;100.00;100219.63;5011969;28;20509;-66
2022/12/14 06:45:58;;;;;;;30.63;16.58;;;;;;;-6.97;100.00;100189.22;5012491;28;20046;-66
2022/12/14 06:48:24;;;;;;;26.45;17.65;;;;;;;-6.81;100.00;100213.53;5012763;28;20037;-66
2022/12/14 06:50:49;;;;;;;32.25;17.65;;;;;;;-6.84;100.00;100224.56;5012444;28;20030;-67
2022/12/14 06:53:14;;;;;;;26.55;16.48;;;;;;;-6.86;100.00;100213.44;4993246;28;20088;-66
2022/12/14 06:55:40;;;;;;;36.10;16.88;;;;;;;-6.99;100.00;100207.09;5010839;28;20053;-66
2022/12/14 06:58:05;;;;;;;30.40;17.27;;;;;;;-6.90;100.00;100214.16;5011125;28;20034;-66
2022/12/14 07:00:30;;;;;;;28.25;16.33;;;;;;;-6.93;100.00;100221.75;5011620;28;20038;-65
2022/12/14 07:02:56;;;;;;;29.35;17.60;;;;;;;-7.47;100.00;100131.59;5010318;28;20033;-66
2022/12/14 07:05:21;;;;;;;30.48;17.27;;;;;;;-6.96;100.00;100229.34;5011487;28;20030;-66
2022/12/14 07:07:46;;;;;;;28.42;16.25;;;;;;;-7.05;100.00;100219.72;5011548;28;20396;-65
2022/12/14 07:10:12;;;;;;;25.48;16.63;;;;;;;-7.41;100.00;100157.31;5011968;28;20124;-61
2022/12/14 07:12:37;;;;;;;28.58;17.23;;;;;;;-7.52;100.00;100140.81;4994336;28;20417;-61
2022/12/14 07:15:03;;;;;;;27.60;15.75;;;;;;;-7.04;100.00;100207.81;4993345;28;20046;-61
2022/12/14 07:17:28;;;;;;;31.00;16.52;;;;;;;-6.81;100.00;100236.56;4997169;28;20042;-61
2022/12/14 07:19:54;;;;;;;25.98;15.80;;;;;;;-7.22;100.00;100168.94;4992136;28;20039;-61
2022/12/14 07:22:20;;;;;;;23.45;16.20;;;;;;;-6.88;100.00;100235.53;5004066;28;20168;-61
2022/12/14 07:24:45;;;;;;;29.52;17.45;;;;;;;-7.49;100.00;100133.25;5008495;28;20041;-61
2022/12/14 07:27:10;;;;;;;29.05;17.48;;;;;;;-7.37;100.00;100159.16;5012133;28;20116;-61
2022/12/14 07:29:36;;;;;;;24.55;15.73;;;;;;;-7.31;100.00;100173.78;5015097;28;20049;-61
2022/12/14 07:32:01;;;;;;;32.50;17.90;;;;;;;-6.92;100.00;100239.69;5014802;28;20112;-61
2022/12/14 07:34:27;;;;;;;25.92;15.85;;;;;;;-7.22;100.00;100204.72;5015097;28;20531;-61
2022/12/14 07:36:52;;;;;;;23.58;14.38;;;;;;;-6.99;100.00;100244.59;5014298;28;20049;-61
2022/12/14 07:39:18;;;;;;;30.23;17.02;;;;;;;-7.15;100.00;100227.09;4997390;28;20052;-61
2022/12/14 07:41:46;;;;;;;31.60;15.68;;;;;;;-7.44;100.00;100182.78;5014687;28;20042;-61
2022/12/14 07:44:12;;;;;;;26.13;14.68;;;;;;;-7.42;100.00;100187.16;5014680;28;20038;-61
2022/12/14 07:46:37;;;;;;;27.08;16.10;;;;;;;-7.07;100.00;100264.00;5015241;28;20371;-62
2022/12/14 07:49:03;;;;;;;26.88;16.08;;;;;;;-7.69;100.00;100152.25;4981217;28;20087;-61
2022/12/14 07:51:35;;;;;;;24.42;15.32;;;;;;;-7.61;100.00;100181.44;5015103;28;20034;-61
2022/12/14 07:54:02;;;;;;;26.17;15.27;;;;;;;-7.71;100.00;100172.66;5014850;28;20077;-61
2022/12/14 07:56:33;;;;;;;27.30;15.45;;;;;;;-7.69;100.00;100194.00;4997265;28;20025;-61
2022/12/14 07:58:59;;;;;;;27.08;16.05;;;;;;;-7.29;100.00;100270.16;4997309;28;20081;-61
2022/12/14 08:01:27;;;;;;;27.23;15.18;;;;;;;-7.31;100.00;100279.50;4996833;28;20049;-61
2022/12/14 08:03:57;;;;;;;29.00;15.68;;;;;;;-7.36;100.00;100265.72;5014671;28;20111;-61
2022/12/14 08:06:24;;;;;;;26.38;16.35;;;;;;;-7.37;100.00;100260.53;4996974;28;20158;-61
2022/12/14 08:08:51;;;;;;;24.67;16.20;;;;;;;-7.72;100.00;100199.03;5014615;28;20038;-62
2022/12/14 08:11:17;;;;;;;28.27;16.45;;;;;;;-7.86;100.00;100174.75;4996543;28;20042;-62
2022/12/14 08:13:42;;;;;;;28.52;17.30;;;;;;;-7.66;100.00;100199.22;4996737;28;20441;-61
2022/12/14 08:16:11;;;;;;;27.90;15.88;;;;;;;-7.73;100.00;100188.75;5014775;28;20042;-61
2022/12/14 08:18:36;;;;;;;26.90;16.35;;;;;;;-7.75;100.00;100180.16;5014488;28;20041;-61
2022/12/14 08:21:03;;;;;;;25.58;15.23;;;;;;;-7.63;100.00;100206.09;5014507;28;20034;-62
2022/12/14 08:23:29;;;;;;;26.63;14.50;;;;;;;-7.30;100.00;100260.78;4996966;28;20446;-61
2022/12/14 08:25:55;;;;;;;25.55;15.45;;;;;;;-7.20;100.00;100267.00;4996218;28;20116;-61
2022/12/14 08:28:22;;;;;;;25.40;15.75;;;;;;;-7.61;100.00;100191.66;4996634;28;20135;-62
2022/12/14 08:30:47;;;;;;;27.13;15.40;;;;;;;-7.08;100.00;100260.56;4995818;28;20053;-62
2022/12/14 08:33:12;;;;;;;27.88;15.60;;;;;;;-7.09;100.00;100258.81;5012433;28;20151;-62
2022/12/14 08:35:38;;;;;;;25.20;15.48;;;;;;;-7.09;100.00;100251.16;4995292;28;20042;-62
2022/12/14 08:38:03;;;;;;;28.17;15.82;;;;;;;-6.93;100.00;100278.91;4979263;28;20048;-61
2022/12/14 08:40:28;;;;;;;26.98;16.30;;;;;;;-7.35;100.00;100190.72;5012772;28;20553;-61
2022/12/14 08:42:54;;;;;;;26.00;14.68;;;;;;;-6.84;100.00;100260.38;5012883;28;20041;-62
2022/12/14 08:45:20;;;;;;;26.65;15.27;;;;;;;-6.74;100.00;100271.75;4995487;28;20401;-62
2022/12/14 08:47:46;;;;;;;23.02;15.43;;;;;;;-6.70;100.00;100276.09;4975474;28;20105;-61
2022/12/14 08:50:12;;;;;;;25.27;15.85;;;;;;;-6.67;100.00;100281.31;4976968;28;20046;-61
2022/12/14 08:52:37;;;;;;;26.13;15.25;;;;;;;-7.08;100.00;100193.19;5003908;28;20113;-62
2022/12/14 08:55:06;;;;;;;28.05;15.68;;;;;;;-6.56;100.00;100278.22;5010814;28;20480;-62
2022/12/14 08:57:31;;;;;;;24.95;15.77;;;;;;;-6.61;100.00;100263.56;5012420;28;20029;-62
2022/12/14 08:59:57;;;;;;;27.95;15.88;;;;;;;-6.52;100.00;100271.50;4977649;28;20539;-62
2022/12/14 09:02:22;;;;;;;27.83;14.95;;;;;;;-6.48;100.00;100283.56;4993486;28;20037;-62
2022/12/14 09:04:48;;;;;;;21.30;13.98;;;;;;;-6.87;100.00;100207.44;5012229;28;20096;-64
2022/12/14 09:07:13;;;;;;;28.65;15.93;;;;;;;-6.48;100.00;100274.16;4994814;28;20108;-62
2022/12/14 09:09:38;;;;;;;22.98;15.02;;;;;;;-6.87;100.00;100204.88;5012467;28;20473;-63
2022/12/14 09:12:07;;;;;;;22.33;14.05;;;;;;;-6.35;100.00;100286.47;4994960;28;20034;-62
2022/12/14 09:14:33;;;;;;;25.52;15.43;;;;;;;-6.45;100.00;100258.03;4994841;28;20038;-62
2022/12/14 09:16:59;;;;;;;26.33;15.45;;;;;;;-6.18;100.00;100278.34;4993247;28;20401;-62
2022/12/14 09:19:25;;;;;;;24.30;15.05;;;;;;;-6.09;100.00;100289.69;5011161;28;20030;-62
2022/12/14 09:21:50;;;;;;;23.35;15.63;;;;;;;-6.02;100.00;100280.47;5012250;28;20134;-62
2022/12/14 09:24:16;;;;;;;23.42;15.25;;;;;;;-6.36;100.00;100202.78;5011829;28;20042;-62
2022/12/14 09:26:41;;;;;;;23.33;14.43;;;;;;;-6.15;100.00;100228.06;4994822;28;20026;-62
2022/12/14 09:29:06;;;;;;;24.33;16.38;;;;;;;-5.85;100.00;100276.63;4994240;28;20121;-62
2022/12/14 09:31:32;;;;;;;30.83;15.73;;;;;;;-5.81;100.00;100293.78;5011825;28;20045;-62
2022/12/14 09:33:57;;;;;;;22.02;14.10;;;;;;;-5.90;100.00;100258.59;5011158;28;20248;-62
2022/12/14 09:36:27;;;;;;;24.23;15.52;;;;;;;-5.78;100.00;100274.19;4994440;28;20084;-62
2022/12/14 09:38:54;;;;;;;29.77;14.30;;;;;;;-5.70;100.00;100293.22;4994174;28;20034;-62
2022/12/14 09:41:34;;;;;;;22.55;15.15;;;;;;;-5.63;100.00;100296.75;4994131;28;20140;-63
2022/12/14 09:44:18;;;;;;;22.70;14.23;;;;;;;-5.59;100.00;100292.59;5011726;28;20033;-62
2022/12/14 09:46:51;;;;;;;23.38;14.73;;;;;;;-5.46;100.00;100299.75;5011849;28;20044;-62
2022/12/14 09:49:24;;;;;;;24.15;14.68;;;;;;;-5.40;100.00;100307.56;5011641;28;20033;-62
2022/12/14 09:51:49;;;;;;;21.65;13.50;;;;;;;-5.68;100.00;100242.84;5011654;28;20120;-62
2022/12/14 09:54:16;;;;;;;21.95;15.00;;;;;;;-5.72;100.00;100225.63;4993840;28;20469;-62
2022/12/14 09:56:43;;;;;;;20.45;13.10;;;;;;;-5.26;100.00;100304.50;5011559;28;20397;-62
2022/12/14 09:59:12;;;;;;;18.23;13.20;;;;;;;-5.56;100.00;100232.00;5011834;28;20165;-63
2022/12/14 10:01:47;;;;;;;21.38;14.27;;;;;;;-5.53;100.00;100224.38;4993205;28;20416;-62
2022/12/14 10:04:24;;;;;;;21.65;14.35;;;;;;;-5.16;100.00;100283.31;5011515;28;20041;-62
2022/12/14 10:07:02;;;;;;;21.55;12.90;;;;;;;-4.98;100.00;100300.81;5011743;28;20034;-62
2022/12/14 10:09:54;;;;;;;17.98;12.23;;;;;;;-4.89;100.00;100303.56;5011298;28;20037;-62
2022/12/14 10:12:44;;;;;;;23.85;13.80;;;;;;;-5.15;100.00;100227.75;4993752;28;20033;-62
2022/12/14 10:15:20;;;;;;;20.42;12.93;;;;;;;-4.70;100.00;100297.97;5011382;28;20506;-62
2022/12/14 10:18:17;;;;;;;18.08;12.52;;;;;;;-4.50;100.00;100311.22;4993721;28;20104;-62
2022/12/14 10:21:03;;;;;;;19.25;12.35;;;;;;;-4.51;100.00;100293.19;5010601;28;20029;-62
2022/12/14 10:23:29;;;;;;;18.45;12.20;;;;;;;-5.05;100.00;100218.53;5010511;28;20037;-62
2022/12/14 10:25:59;;;;;;;19.08;12.25;;;;;;;-4.47;100.00;100295.88;4993342;28;20026;-62
2022/12/14 10:28:42;;;;;;;17.58;11.48;;;;;;;-4.39;100.00;100291.72;4993283;28;20100;-62
2022/12/14 10:31:43;;;;;;;19.88;12.85;;;;;;;-4.33;100.00;100296.09;4993599;28;20057;-61
2022/12/14 10:34:29;;;;;;;16.33;11.32;;;;;;;-4.29;100.00;100280.75;4977061;28;20058;-61
2022/12/14 10:37:09;;;;;;;16.08;11.80;;;;;;;-4.28;100.00;100279.94;5010498;28;20042;-61
2022/12/14 10:40:03;;;;;;;21.30;11.90;;;;;;;-4.33;100.00;100284.13;5011014;28;20045;-61
2022/12/14 10:42:35;;;;;;;17.75;11.90;;;;;;;-4.33;100.00;100279.00;5010525;28;20367;-61
2022/12/14 10:45:19;;;;;;;18.92;11.05;;;;;;;-4.28;100.00;100300.50;5010910;28;20033;-60
2022/12/14 10:47:52;;;;;;;17.95;11.25;;;;;;;-4.32;100.00;100274.72;5010790;28;20092;-62
2022/12/14 10:50:25;;;;;;;17.25;11.48;;;;;;;-4.27;100.00;100294.53;4989589;28;20068;-62
2022/12/14 10:52:52;;;;;;;18.42;11.82;;;;;;;-4.40;100.00;100250.56;4990412;28;20030;-61
2022/12/14 10:55:41;;;;;;;23.38;11.43;;;;;;;-4.14;100.00;100293.03;4991597;28;20045;-61
2022/12/14 10:58:09;;;;;;;20.45;11.57;;;;;;;-4.09;100.00;100286.28;4986761;28;20450;-61
2022/12/14 11:00:35;;;;;;;20.73;11.20;;;;;;;-4.47;100.00;100208.53;4993498;28;20278;-61
2022/12/14 11:03:01;;;;;;;18.52;10.80;;;;;;;-4.01;100.00;100279.56;5011858;28;20049;-61
2022/12/14 11:05:35;;;;;;;17.77;11.10;;;;;;;-4.03;100.00;100283.81;4996196;28;20034;-61
2022/12/14 11:08:00;;;;;;;15.90;10.43;;;;;;;-4.24;100.00;100219.19;4996088;28;20034;-61
2022/12/14 11:10:28;;;;;;;21.05;10.85;;;;;;;-3.84;100.00;100282.41;4995903;28;20041;-61
2022/12/14 11:13:02;;;;;;;16.75;11.57;;;;;;;-3.80;100.00;100279.06;5013594;28;20124;-61
2022/12/14 11:15:40;;;;;;;20.10;11.48;;;;;;;-3.84;100.00;100272.13;5013618;28;20041;-61
2022/12/14 11:18:14;;;;;;;16.02;10.80;;;;;;;-3.73;100.00;100289.44;4996086;28;20755;-61
2022/12/14 11:20:51;;;;;;;19.45;10.32;;;;;;;-3.65;100.00;100292.16;4997918;28;20532;-61
2022/12/14 11:23:36;;;;;;;17.10;10.25;;;;;;;-3.64;100.00;100279.31;5013719;28;20042;-61
2022/12/14 11:26:04;;;;;;;19.58;10.50;;;;;;;-3.73;100.00;100255.13;4978371;28;20029;-61
2022/12/14 11:28:36;;;;;;;14.30;10.38;;;;;;;-3.41;100.00;100297.66;4994362;28;20028;-61
2022/12/14 11:31:08;;;;;;;21.83;12.43;;;;;;;-3.34;100.00;100289.19;4994555;28;20040;-60